createdAt,value
2023-05-10T00:00:13.570Z,2.9
2023-05-10T00:01:12.925Z,3.1
2023-05-10T00:02:13.482Z,3.1
2023-05-10T00:03:13.715Z,3.7
2023-05-10T00:04:14.166Z,3.1
2023-05-10T00:05:14.585Z,3
2023-05-10T00:06:14.775Z,3.4
2023-05-10T00:07:15.062Z,3.6
2023-05-10T00:08:15.400Z,3.8
2023-05-10T00:09:15.743Z,3.8
2023-05-10T00:10:16.531Z,3.4
2023-05-10T00:11:16.567Z,3.2
2023-05-10T00:12:16.886Z,3.6
2023-05-10T00:13:17.185Z,3.5
2023-05-10T00:14:17.935Z,3.9
2023-05-10T00:15:17.837Z,3.7
2023-05-10T00:16:18.372Z,3.6
2023-05-10T00:17:18.715Z,3.4
2023-05-10T00:18:18.880Z,3.8
2023-05-10T00:19:19.510Z,3.3
2023-05-10T00:20:19.830Z,3.3
2023-05-10T00:21:20.030Z,4.4
2023-05-10T00:22:20.540Z,3.8
2023-05-10T00:23:20.747Z,4.1
2023-05-10T00:24:21.068Z,3.8
2023-05-10T00:25:21.497Z,3.9
2023-05-10T00:26:21.888Z,4.3
2023-05-10T00:27:22.109Z,3.6
2023-05-10T00:28:22.737Z,3.7
2023-05-10T00:29:22.835Z,3.7
2023-05-10T00:30:23.248Z,3.6
2023-05-10T00:31:23.917Z,3.5
2023-05-10T00:32:23.939Z,3.9
2023-05-10T00:33:24.323Z,3.8
2023-05-10T00:34:24.620Z,3.4
2023-05-10T00:35:25.462Z,3.3
2023-05-10T00:36:25.451Z,3.7
2023-05-10T00:37:26.758Z,3.6
2023-05-10T00:38:26.037Z,3.9
2023-05-10T00:39:26.123Z,4.6
2023-05-10T00:40:27.157Z,4.5
2023-05-10T00:41:26.918Z,4.3
2023-05-10T00:42:27.423Z,4.8
2023-05-10T00:43:27.714Z,4.3
2023-05-10T00:44:28.055Z,4.3
2023-05-10T00:45:28.260Z,5
2023-05-10T00:46:29.634Z,4.3
2023-05-10T00:47:29.821Z,4.4
2023-05-10T00:48:30.546Z,4.2
2023-05-10T00:49:30.285Z,4.7
2023-05-10T00:50:31.171Z,4.8
2023-05-10T00:51:30.455Z,4.2
2023-05-10T00:52:31.240Z,4.8
2023-05-10T00:53:32.838Z,4.5
2023-05-10T00:54:31.645Z,4.5
2023-05-10T00:55:32.117Z,4.4
2023-05-10T00:56:32.595Z,4.5
2023-05-10T00:57:32.741Z,4.6
2023-05-10T00:58:32.864Z,4.3
2023-05-10T00:59:33.587Z,4.5
2023-05-10T01:00:34.419Z,4.3
2023-05-10T01:01:34.248Z,4.3
2023-05-10T01:02:35.767Z,4
2023-05-10T01:03:35.516Z,4.2
2023-05-10T01:04:36.222Z,4.3
2023-05-10T01:05:35.367Z,5.2
2023-05-10T01:06:35.672Z,3.8
2023-05-10T01:07:36.205Z,4
2023-05-10T01:08:36.661Z,4.3
2023-05-10T01:09:36.825Z,4.8
2023-05-10T01:10:37.185Z,4
2023-05-10T01:11:39.100Z,4.2
2023-05-10T01:12:40.613Z,4.1
2023-05-10T01:13:40.181Z,3.8
2023-05-10T01:14:39.115Z,3.9
2023-05-10T01:15:39.944Z,3.8
2023-05-10T01:16:41.279Z,4.7
2023-05-10T01:17:41.545Z,4.2
2023-05-10T01:18:41.927Z,4.7
2023-05-10T01:19:40.583Z,4.2
2023-05-10T01:31:19.329Z,4.7
2023-05-10T01:34:17.334Z,4.1
2023-05-10T01:36:26.052Z,4.2
2023-05-10T01:37:27.291Z,4.4
2023-05-10T01:42:30.085Z,3.7
2023-05-10T01:43:38.262Z,4.1
2023-05-10T01:46:41.002Z,3.6
2023-05-10T01:48:48.258Z,4.3
2023-05-10T01:50:49.397Z,3.6
2023-05-10T01:51:52.824Z,4.1
2023-05-10T01:52:57.380Z,3.8
2023-05-10T01:54:01.655Z,3.9
2023-05-10T01:55:05.486Z,4.3
2023-05-10T01:56:04.363Z,3.8
2023-05-10T01:57:06.539Z,3.6
2023-05-10T01:59:12.449Z,3.7
2023-05-10T02:00:12.444Z,4
2023-05-10T02:01:11.380Z,4.3
2023-05-10T02:02:13.317Z,3.7
2023-05-10T02:03:13.078Z,4.4
2023-05-10T02:04:14.690Z,3.9
2023-05-10T02:05:14.259Z,4
2023-05-10T02:06:16.077Z,3.8
2023-05-10T02:07:15.350Z,4.5
2023-05-10T02:08:16.764Z,4.1
2023-05-10T02:09:15.350Z,4
2023-05-10T02:10:15.730Z,4
2023-05-10T02:11:15.381Z,3.7
2023-05-10T02:12:17.217Z,3.9
2023-05-10T02:13:18.060Z,4
2023-05-10T02:14:18.005Z,3.6
2023-05-10T02:15:20.264Z,3.7
2023-05-10T02:16:19.530Z,3.8
2023-05-10T02:17:19.138Z,3.5
2023-05-10T02:18:19.601Z,3.9
2023-05-10T02:19:21.133Z,4
2023-05-10T02:20:21.631Z,3.5
2023-05-10T02:21:21.433Z,3.8
2023-05-10T02:22:21.441Z,4.2
2023-05-10T02:23:21.957Z,3.8
2023-05-10T02:24:22.674Z,3.4
2023-05-10T02:25:22.335Z,3.6
2023-05-10T02:26:24.633Z,4
2023-05-10T02:27:23.402Z,3.7
2023-05-10T02:28:24.874Z,3.6
2023-05-10T02:29:28.233Z,3.9
2023-05-10T02:30:26.357Z,3.8
2023-05-10T02:31:26.927Z,3.6
2023-05-10T02:32:28.999Z,3.8
2023-05-10T02:33:27.591Z,4
2023-05-10T02:34:28.438Z,4.2
2023-05-10T02:35:28.534Z,3.6
2023-05-10T02:36:28.891Z,3.8
2023-05-10T02:37:28.288Z,3.8
2023-05-10T02:38:29.424Z,3.6
2023-05-10T02:39:30.667Z,4
2023-05-10T02:40:30.406Z,4
2023-05-10T02:41:31.899Z,3.9
2023-05-10T02:42:32.108Z,3.9
2023-05-10T02:43:33.042Z,4
2023-05-10T02:44:31.148Z,4
2023-05-10T02:45:33.314Z,4.2
2023-05-10T02:46:31.869Z,3.8
2023-05-10T02:47:31.491Z,3.7
2023-05-10T02:48:31.946Z,3.7
2023-05-10T02:49:32.170Z,4.1
2023-05-10T02:50:34.519Z,4.2
2023-05-10T02:51:35.823Z,4
2023-05-10T02:52:41.492Z,3.8
2023-05-10T02:53:36.938Z,4.4
2023-05-10T02:54:42.336Z,3.6
2023-05-10T02:55:39.156Z,4.3
2023-05-10T02:56:41.629Z,3.7
2023-05-10T02:57:44.398Z,3.9
2023-05-10T02:58:41.962Z,3.7
2023-05-10T02:59:42.250Z,3.5
2023-05-10T03:00:42.460Z,3.4
2023-05-10T03:01:42.937Z,3.5
2023-05-10T03:02:43.188Z,4
2023-05-10T03:03:43.618Z,3.6
2023-05-10T03:04:43.879Z,3.6
2023-05-10T03:05:44.240Z,4.4
2023-05-10T03:06:45.269Z,3.5
2023-05-10T03:07:45.793Z,3.7
2023-05-10T03:08:46.123Z,4.6
2023-05-10T03:09:45.701Z,3.5
2023-05-10T03:20:13.711Z,4.7
2023-05-10T03:21:14.654Z,3.7
2023-05-10T03:25:22.681Z,4.5
2023-05-10T03:27:26.264Z,4.4
2023-05-10T03:28:26.285Z,4.2
2023-05-10T03:29:26.969Z,5
2023-05-10T03:30:26.075Z,4.4
2023-05-10T03:31:25.010Z,4.2
2023-05-10T03:32:25.319Z,3.8
2023-05-10T03:33:26.422Z,4.1
2023-05-10T03:34:26.429Z,4.3
2023-05-10T03:35:26.061Z,4.3
2023-05-10T03:36:26.635Z,4.1
2023-05-10T03:37:26.744Z,3.9
2023-05-10T03:38:29.659Z,4
2023-05-10T03:39:27.988Z,4.1
2023-05-10T03:40:29.618Z,3.6
2023-05-10T03:41:28.499Z,4.4
2023-05-10T03:42:28.879Z,4.3
2023-05-10T03:43:29.466Z,3.9
2023-05-10T03:44:29.450Z,3.9
2023-05-10T03:45:29.988Z,3.8
2023-05-10T03:46:30.371Z,4
2023-05-10T03:47:30.810Z,3.8
2023-05-10T03:48:31.491Z,3.8
2023-05-10T03:49:31.324Z,4
2023-05-10T03:50:31.675Z,3.6
2023-05-10T03:51:32.010Z,3.4
2023-05-10T03:52:32.316Z,4
2023-05-10T03:53:32.785Z,3.7
2023-05-10T03:54:33.098Z,3.7
2023-05-10T03:55:33.620Z,3.8
2023-05-10T03:56:33.734Z,3.7
2023-05-10T03:57:34.450Z,4
2023-05-10T03:58:34.550Z,4.3
2023-05-10T03:59:34.876Z,3.6
2023-05-10T04:00:35.115Z,4
2023-05-10T04:01:36.299Z,4
2023-05-10T04:02:36.034Z,4.4
2023-05-10T04:03:36.293Z,3.8
2023-05-10T04:04:36.602Z,4.1
2023-05-10T04:05:37.267Z,3.9
2023-05-10T04:06:38.896Z,4
2023-05-10T04:07:37.698Z,4.6
2023-05-10T04:08:38.122Z,4.5
2023-05-10T04:09:38.287Z,5.1
2023-05-10T04:10:39.040Z,4.7
2023-05-10T04:11:39.261Z,4.7
2023-05-10T04:12:39.360Z,4.6
2023-05-10T04:13:39.776Z,4.4
2023-05-10T04:14:40.140Z,4.6
2023-05-10T04:15:40.355Z,4.7
2023-05-10T04:16:40.939Z,4.8
2023-05-10T04:17:41.381Z,4.7
2023-05-10T04:18:41.646Z,4.6
2023-05-10T04:19:41.965Z,5.3
2023-05-10T04:20:42.279Z,5.2
2023-05-10T04:21:42.590Z,5.2
2023-05-10T04:22:43.040Z,4.6
2023-05-10T04:23:43.441Z,4.7
2023-05-10T04:24:43.642Z,4.7
2023-05-10T04:25:44.355Z,4.3
2023-05-10T04:26:44.476Z,4.9
2023-05-10T04:27:44.881Z,4.4
2023-05-10T04:28:45.150Z,5
2023-05-10T04:29:45.621Z,5.1
2023-05-10T04:30:46.573Z,4.9
2023-05-10T04:31:46.386Z,5.7
2023-05-10T04:32:46.709Z,5.1
2023-05-10T04:33:47.442Z,5.2
2023-05-10T04:34:47.700Z,4.9
2023-05-10T04:35:47.929Z,4.1
2023-05-10T04:36:48.116Z,4.1
2023-05-10T04:37:48.553Z,3.3
2023-05-10T04:38:49.153Z,3.9
2023-05-10T04:39:49.187Z,3.3
2023-05-10T04:40:49.705Z,3.3
2023-05-10T04:41:50.009Z,3.3
2023-05-10T04:42:50.435Z,3.4
2023-05-10T04:43:50.945Z,2.8
2023-05-10T04:44:51.250Z,3.3
2023-05-10T04:45:51.591Z,3.4
2023-05-10T04:46:51.886Z,3.4
2023-05-10T04:47:52.324Z,3
2023-05-10T04:48:52.721Z,2.8
2023-05-10T04:49:53.022Z,2.9
2023-05-10T04:50:53.445Z,2.8
2023-05-10T04:51:53.655Z,2.6
2023-05-10T04:52:54.172Z,2.9
2023-05-10T04:54:05.335Z,2.6
2023-05-10T04:54:59.197Z,2.7
2023-05-10T04:55:59.712Z,2.7
2023-05-10T04:57:00.041Z,2.6
2023-05-10T04:58:00.234Z,2.5
2023-05-10T04:59:00.772Z,2.8
2023-05-10T05:00:01.319Z,2.7
2023-05-10T05:01:10.439Z,2.8
2023-05-10T05:02:03.144Z,2.4
2023-05-10T05:03:03.509Z,3
2023-05-10T05:04:04.396Z,2.6
2023-05-10T05:05:04.756Z,2.6
2023-05-10T05:06:05.121Z,2.3
2023-05-10T05:07:05.027Z,2.8
2023-05-10T05:08:05.533Z,2.6
2023-05-10T05:09:05.846Z,2.3
2023-05-10T05:10:09.944Z,2.4
2023-05-10T05:11:07.192Z,2.4
2023-05-10T05:12:07.714Z,2.4
2023-05-10T05:13:08.329Z,2.4
2023-05-10T05:14:08.749Z,2.3
2023-05-10T05:15:09.941Z,2.2
2023-05-10T05:16:09.269Z,2.2
2023-05-10T05:17:09.698Z,2.3
2023-05-10T05:18:10.021Z,2.7
2023-05-10T05:19:10.474Z,2.6
2023-05-10T05:20:11.775Z,2.5
2023-05-10T05:21:18.824Z,2.6
2023-05-10T05:22:17.252Z,2.4
2023-05-10T05:23:16.718Z,2.5
2023-05-10T05:24:17.233Z,2.1
2023-05-10T05:25:17.352Z,2.5
2023-05-10T05:26:17.946Z,2.6
2023-05-10T05:27:18.250Z,2.3
2023-05-10T05:28:19.277Z,2.3
2023-05-10T05:29:19.047Z,2.6
2023-05-10T05:30:19.834Z,2.3
2023-05-10T05:31:19.882Z,2.2
2023-05-10T05:32:20.403Z,2.1
2023-05-10T05:33:20.743Z,2.4
2023-05-10T05:34:21.484Z,2.5
2023-05-10T05:35:21.516Z,2.7
2023-05-10T05:36:21.904Z,2.4
2023-05-10T05:37:22.556Z,2.2
2023-05-10T05:38:22.728Z,2.4
2023-05-10T05:39:23.150Z,2.5
2023-05-10T05:40:23.826Z,2.5
2023-05-10T05:41:23.980Z,2.5
2023-05-10T05:42:24.493Z,2.5
2023-05-10T05:43:24.925Z,2.7
2023-05-10T05:44:26.189Z,2.7
2023-05-10T05:45:25.641Z,2.5
2023-05-10T05:46:26.116Z,2.1
2023-05-10T05:47:26.433Z,2.6
2023-05-10T05:48:27.108Z,2.4
2023-05-10T05:49:27.299Z,2.4
2023-05-10T05:50:27.831Z,2.4
2023-05-10T05:51:28.236Z,2.5
2023-05-10T05:52:28.452Z,2.4
2023-05-10T05:53:29.073Z,2.4
2023-05-10T05:54:29.510Z,2.4
2023-05-10T05:55:29.730Z,2.4
2023-05-10T05:56:30.228Z,2.3
2023-05-10T05:57:30.814Z,2.2
2023-05-10T05:58:31.143Z,2
2023-05-10T05:59:31.456Z,2.3
2023-05-10T06:00:31.862Z,2.2
2023-05-10T06:01:32.304Z,2.3
2023-05-10T06:02:32.782Z,2.2
2023-05-10T06:03:33.218Z,2.1
2023-05-10T06:04:33.645Z,2.5
2023-05-10T06:05:33.805Z,2.3
2023-05-10T06:06:34.917Z,2.2
2023-05-10T06:07:35.531Z,2.5
2023-05-10T06:08:35.728Z,2.3
2023-05-10T06:09:36.360Z,2.3
2023-05-10T06:10:36.928Z,2.5
2023-05-10T06:11:37.691Z,2.3
2023-05-10T06:12:37.812Z,2.2
2023-05-10T06:13:37.951Z,2.2
2023-05-10T06:14:38.367Z,2.3
2023-05-10T06:15:39.401Z,2.4
2023-05-10T06:16:39.188Z,2.1
2023-05-10T06:17:39.823Z,2.4
2023-05-10T06:18:40.200Z,2.2
2023-05-10T06:19:40.705Z,2.5
2023-05-10T06:20:43.070Z,2.3
2023-05-10T06:21:41.352Z,2.5
2023-05-10T06:22:42.073Z,5.9
2023-05-10T06:23:42.281Z,3.7
2023-05-10T06:24:42.791Z,2.8
2023-05-10T06:25:43.319Z,2.2
2023-05-10T06:26:43.623Z,2.7
2023-05-10T06:27:45.751Z,2.3
2023-05-10T06:28:45.599Z,2.5
2023-05-10T06:29:46.012Z,2.5
2023-05-10T06:30:46.320Z,2.4
2023-05-10T06:31:46.897Z,2.2
2023-05-10T06:32:47.379Z,2.3
2023-05-10T06:33:47.772Z,2.5
2023-05-10T06:34:48.592Z,2.3
2023-05-10T06:35:48.597Z,2.4
2023-05-10T06:36:49.700Z,2.2
2023-05-10T06:37:50.509Z,2.3
2023-05-10T06:38:50.373Z,2.5
2023-05-10T06:39:50.982Z,2.6
2023-05-10T06:40:51.509Z,2.6
2023-05-10T06:41:51.720Z,2.5
2023-05-10T06:42:52.348Z,2.4
2023-05-10T06:43:52.672Z,2.6
2023-05-10T06:44:53.469Z,2.4
2023-05-10T06:45:53.470Z,2.6
2023-05-10T06:46:54.103Z,2.5
2023-05-10T06:47:54.566Z,2.6
2023-05-10T06:48:54.723Z,2.7
2023-05-10T06:49:55.366Z,2.6
2023-05-10T06:50:55.813Z,2.2
2023-05-10T06:51:57.426Z,2.7
2023-05-10T06:52:56.606Z,2.3
2023-05-10T06:53:57.121Z,2.3
2023-05-10T06:54:57.581Z,2.7
2023-05-10T06:55:57.884Z,2.4
2023-05-10T06:56:58.471Z,2.2
2023-05-10T06:57:58.720Z,2.3
2023-05-10T06:58:59.171Z,2.4
2023-05-10T07:00:00.487Z,2.9
2023-05-10T07:01:06.433Z,2.3
2023-05-10T07:02:03.828Z,2.5
2023-05-10T07:03:04.576Z,2.7
2023-05-10T07:04:05.489Z,2.5
2023-05-10T07:05:06.627Z,2.5
2023-05-10T07:06:06.559Z,2.4
2023-05-10T07:07:07.350Z,2.8
2023-05-10T07:08:07.714Z,2.8
2023-05-10T07:09:08.376Z,2.6
2023-05-10T07:10:09.826Z,2.5
2023-05-10T07:11:09.209Z,2.7
2023-05-10T07:12:11.618Z,2.9
2023-05-10T07:13:10.479Z,2.9
2023-05-10T07:14:10.659Z,2.9
2023-05-10T07:15:11.821Z,2.9
2023-05-10T07:16:11.745Z,2.9
2023-05-10T07:17:12.134Z,2.7
2023-05-10T07:18:12.573Z,3
2023-05-10T07:19:13.045Z,3.3
2023-05-10T07:20:14.020Z,3
2023-05-10T07:21:13.983Z,2.9
2023-05-10T07:22:14.308Z,2.9
2023-05-10T07:23:14.726Z,3.5
2023-05-10T07:24:15.197Z,3.2
2023-05-10T07:25:15.963Z,3.4
2023-05-10T07:26:16.286Z,3.5
2023-05-10T07:27:16.642Z,3
2023-05-10T07:28:17.216Z,3
2023-05-10T07:29:17.627Z,2.8
2023-05-10T07:30:18.178Z,2.8
2023-05-10T07:31:18.459Z,3.2
2023-05-10T07:32:19.200Z,3.1
2023-05-10T07:33:19.499Z,3.3
2023-05-10T07:34:19.848Z,3.4
2023-05-10T07:35:20.960Z,2.9
2023-05-10T07:36:20.692Z,2.8
2023-05-10T07:37:21.165Z,3
2023-05-10T07:38:21.637Z,3
2023-05-10T07:39:27.532Z,3.1
2023-05-10T07:40:25.686Z,3.4
2023-05-10T07:41:26.097Z,3.3
2023-05-10T07:42:26.632Z,3.4
2023-05-10T07:43:27.042Z,3
2023-05-10T07:44:27.552Z,3.5
2023-05-10T07:45:28.705Z,2.9
2023-05-10T07:46:28.537Z,2.7
2023-05-10T07:47:28.764Z,2.7
2023-05-10T07:48:29.313Z,2.7
2023-05-10T07:49:29.943Z,2.6
2023-05-10T07:50:30.568Z,2.7
2023-05-10T07:51:30.709Z,2.6
2023-05-10T07:52:31.188Z,3
2023-05-10T07:53:31.855Z,2.6
2023-05-10T07:54:32.331Z,2.9
2023-05-10T07:55:32.849Z,2.6
2023-05-10T07:56:33.461Z,2.9
2023-05-10T07:57:33.693Z,3.1
2023-05-10T07:58:34.017Z,3
2023-05-10T07:59:34.262Z,3.2
2023-05-10T08:00:35.345Z,2.7
2023-05-10T08:01:35.886Z,3.3
2023-05-10T08:02:37.247Z,2.9
2023-05-10T08:03:36.336Z,2.9
2023-05-10T08:04:36.697Z,2.8
2023-05-10T08:05:37.207Z,3
2023-05-10T08:06:37.618Z,2.9
2023-05-10T08:07:37.940Z,2.9
2023-05-10T08:08:38.882Z,2.7
2023-05-10T08:09:38.832Z,2.6
2023-05-10T08:10:39.513Z,2.6
2023-05-10T08:11:39.809Z,2.7
2023-05-10T08:12:40.426Z,2.5
2023-05-10T08:13:40.851Z,2.7
2023-05-10T08:14:41.386Z,2.6
2023-05-10T08:15:41.806Z,2.6
2023-05-10T08:16:42.402Z,2.7
2023-05-10T08:17:42.844Z,2.5
2023-05-10T08:18:46.007Z,2.6
2023-05-10T08:19:43.657Z,2.4
2023-05-10T08:20:44.084Z,2.4
2023-05-10T08:21:44.521Z,2.6
2023-05-10T08:22:45.008Z,2.6
2023-05-10T08:23:45.456Z,2.7
2023-05-10T08:24:45.830Z,3
2023-05-10T08:25:46.268Z,2.8
2023-05-10T08:26:46.771Z,2.8
2023-05-10T08:27:47.394Z,2.5
2023-05-10T08:28:47.706Z,2.6
2023-05-10T08:29:50.349Z,2.7
2023-05-10T08:30:48.643Z,2.6
2023-05-10T08:31:49.190Z,2.5
2023-05-10T08:32:49.730Z,2.6
2023-05-10T08:33:50.004Z,2.6
2023-05-10T08:34:50.404Z,2.9
2023-05-10T08:35:51.435Z,2.5
2023-05-10T08:36:51.270Z,2.9
2023-05-10T08:37:52.318Z,2.7
2023-05-10T08:38:52.454Z,2.5
2023-05-10T08:39:52.518Z,2.3
2023-05-10T08:40:56.237Z,2.6
2023-05-10T08:41:58.918Z,2.2
2023-05-10T08:43:59.581Z,2.5
2023-05-10T08:45:00.710Z,2.2
2023-05-10T08:46:02.870Z,2.7
2023-05-10T08:47:03.769Z,2.4
2023-05-10T08:48:03.733Z,2.5
2023-05-10T08:49:04.318Z,2.6
2023-05-10T08:50:04.167Z,2.4
2023-05-10T08:51:04.776Z,2.3
2023-05-10T08:52:06.717Z,2.4
2023-05-10T08:53:07.213Z,2.3
2023-05-10T08:54:05.691Z,2.2
2023-05-10T08:55:05.510Z,2.5
2023-05-10T08:56:05.856Z,2.7
2023-05-10T08:57:05.994Z,2.2
2023-05-10T08:58:06.632Z,2.8
2023-05-10T08:59:06.433Z,2.2
2023-05-10T09:00:08.806Z,2.3
2023-05-10T09:01:07.571Z,2.2
2023-05-10T09:02:09.372Z,2.7
2023-05-10T09:03:07.811Z,2.5
2023-05-10T09:04:08.478Z,2.5
2023-05-10T09:05:09.516Z,2.3
2023-05-10T09:06:09.268Z,2.5
2023-05-10T09:07:09.360Z,2.5
2023-05-10T09:08:10.328Z,2.7
2023-05-10T09:09:10.298Z,2.2
2023-05-10T09:10:12.672Z,2.6
2023-05-10T09:11:13.906Z,2.7
2023-05-10T09:12:11.849Z,2.6
2023-05-10T09:13:12.165Z,2.4
2023-05-10T09:14:13.823Z,2.5
2023-05-10T09:15:13.116Z,2.5
2023-05-10T09:16:21.383Z,2.5
2023-05-10T09:17:15.098Z,2.4
2023-05-10T09:18:15.093Z,2.3
2023-05-10T09:19:15.923Z,2.8
2023-05-10T09:20:15.910Z,2.3
2023-05-10T09:21:16.585Z,2.5
2023-05-10T09:22:18.472Z,2.6
2023-05-10T09:23:16.948Z,2.5
2023-05-10T09:24:17.471Z,2.7
2023-05-10T09:25:18.548Z,8.5
2023-05-10T09:26:18.185Z,3.2
2023-05-10T09:27:27.318Z,2.7
2023-05-10T09:28:19.969Z,2.6
2023-05-10T09:29:20.009Z,2.2
2023-05-10T09:31:24.844Z,2.6
2023-05-10T09:33:29.224Z,2.4
2023-05-10T09:34:33.532Z,2.3
2023-05-10T09:35:33.429Z,2.6
2023-05-10T09:36:31.812Z,2.4
2023-05-10T09:37:31.788Z,2.5
2023-05-10T09:39:37.868Z,2.7
2023-05-10T09:40:35.407Z,2.9
2023-05-10T09:41:35.697Z,2.4
2023-05-10T09:42:35.968Z,2.3
2023-05-10T09:43:39.446Z,2.5
2023-05-10T09:44:37.551Z,2.4
2023-05-10T09:45:38.867Z,2.3
2023-05-10T09:46:38.019Z,3.7
2023-05-10T09:47:38.040Z,2.4
2023-05-10T09:48:48.478Z,2.5
2023-05-10T09:49:43.627Z,2.7
2023-05-10T09:50:41.505Z,2.3
2023-05-10T09:51:41.704Z,2.8
2023-05-10T09:53:45.908Z,2.7
2023-05-10T09:54:54.729Z,2.4
2023-05-10T09:55:47.781Z,2.2
2023-05-10T09:56:47.568Z,2.2
2023-05-10T09:57:48.866Z,2.5
2023-05-10T09:59:50.160Z,2.4
2023-05-10T10:00:50.705Z,3
2023-05-10T10:01:51.999Z,2.5
2023-05-10T10:03:01.018Z,2.5
2023-05-10T10:03:54.587Z,2.4
2023-05-10T10:04:54.290Z,2.4
2023-05-10T10:05:54.318Z,2.6
2023-05-10T10:07:06.537Z,2.7
2023-05-10T10:07:59.996Z,2.5
2023-05-10T10:08:59.532Z,2.3
2023-05-10T10:10:00.867Z,2.3
2023-05-10T10:11:00.371Z,2.5
2023-05-10T10:12:01.433Z,2.4
2023-05-10T10:13:01.404Z,2.6
2023-05-10T10:14:01.706Z,2.4
2023-05-10T10:15:02.030Z,2.6
2023-05-10T10:16:03.235Z,2.3
2023-05-10T10:17:07.402Z,2.6
2023-05-10T10:18:06.766Z,2.8
2023-05-10T10:19:07.728Z,2.4
2023-05-10T10:20:11.148Z,2.3
2023-05-10T10:21:09.755Z,2.4
2023-05-10T10:22:10.066Z,2.7
2023-05-10T10:23:10.380Z,2.6
2023-05-10T10:24:10.579Z,2.1
2023-05-10T10:25:19.056Z,2.5
2023-05-10T10:26:12.351Z,2.5
2023-05-10T10:34:31.238Z,2.3
2023-05-10T10:35:34.212Z,2.4
2023-05-10T10:36:34.484Z,2.4
2023-05-10T10:39:36.903Z,2.5
2023-05-10T10:40:36.922Z,2.4
2023-05-10T10:42:48.588Z,2.6
2023-05-10T10:43:46.042Z,2.7
2023-05-10T10:44:46.391Z,2.4
2023-05-10T10:47:50.366Z,2.4
2023-05-10T10:49:52.972Z,2.4
2023-05-10T10:53:13.172Z,4.1
2023-05-10T10:54:10.679Z,2.6
2023-05-10T10:56:11.466Z,2.4
2023-05-10T10:57:15.977Z,2.5
2023-05-10T10:59:28.230Z,2.5
2023-05-10T11:00:34.275Z,2.5
2023-05-10T11:01:22.126Z,2.2
2023-05-10T11:03:22.031Z,2.2
2023-05-10T11:04:22.771Z,2.2
2023-05-10T11:06:38.274Z,2.5
2023-05-10T11:07:30.594Z,2
2023-05-10T11:08:32.659Z,2.2
2023-05-10T11:09:41.227Z,2.3
2023-05-10T11:10:33.944Z,2.3
2023-05-10T11:11:36.114Z,2.3
2023-05-10T11:12:34.693Z,2.3
2023-05-10T11:13:40.100Z,2.2
2023-05-10T11:14:37.643Z,2.3
2023-05-10T11:15:39.597Z,2.1
2023-05-10T11:16:45.319Z,2.7
2023-05-10T11:17:43.955Z,2.2
2023-05-10T11:18:54.503Z,2.4
2023-05-10T11:20:57.421Z,2.5
2023-05-10T11:22:58.586Z,2.4
2023-05-10T11:24:00.198Z,2.3
2023-05-10T11:24:59.566Z,2.4
2023-05-10T11:26:01.781Z,2.5
2023-05-10T11:27:01.084Z,2.1
2023-05-10T11:28:05.585Z,2
2023-05-10T11:29:02.958Z,2.2
2023-05-10T11:30:07.752Z,2
2023-05-10T11:31:05.598Z,2.2
2023-05-10T11:32:06.630Z,2.6
2023-05-10T11:33:06.862Z,2.2
2023-05-10T11:34:06.432Z,2.4
2023-05-10T11:35:10.352Z,2
2023-05-10T11:36:12.443Z,2.1
2023-05-10T11:37:10.244Z,2.1
2023-05-10T11:38:12.023Z,2.3
2023-05-10T11:39:10.680Z,2.2
2023-05-10T11:40:12.212Z,2.3
2023-05-10T11:41:12.119Z,2.2
2023-05-10T11:42:13.478Z,2.3
2023-05-10T11:43:12.281Z,2.2
2023-05-10T11:44:12.863Z,2.2
2023-05-10T11:45:13.075Z,2.4
2023-05-10T11:46:14.740Z,2.1
2023-05-10T11:47:13.915Z,2.3
2023-05-10T11:48:14.294Z,2.3
2023-05-10T11:49:14.728Z,2
2023-05-10T11:50:15.311Z,2.4
2023-05-10T11:51:15.875Z,2.4
2023-05-10T11:52:15.777Z,2.2
2023-05-10T11:53:16.196Z,2.4
2023-05-10T11:54:16.727Z,2.6
2023-05-10T11:55:17.337Z,2.2
2023-05-10T11:56:17.858Z,2.2
2023-05-10T11:57:20.126Z,2.5
2023-05-10T11:58:19.746Z,1.9
2023-05-10T11:59:18.590Z,1.9
2023-05-10T12:00:19.303Z,2.4
2023-05-10T12:01:19.645Z,2
2023-05-10T12:02:20.106Z,2.2
2023-05-10T12:03:20.708Z,2.2
2023-05-10T12:04:21.446Z,2.1
2023-05-10T12:05:21.098Z,2.2
2023-05-10T12:06:22.112Z,2.2
2023-05-10T12:07:21.705Z,2.1
2023-05-10T12:08:24.484Z,2.4
2023-05-10T12:09:35.455Z,2.1
2023-05-10T12:10:27.970Z,2
2023-05-10T12:12:26.963Z,2.5
2023-05-10T12:13:27.327Z,2.1
2023-05-10T12:14:27.654Z,2.4
2023-05-10T12:15:28.934Z,2.4
2023-05-10T12:16:30.903Z,2.5
2023-05-10T12:17:29.985Z,2.1
2023-05-10T12:18:29.205Z,2.1
2023-05-10T12:19:29.665Z,2.3
2023-05-10T12:20:30.205Z,2.2
2023-05-10T12:21:30.926Z,2.1
2023-05-10T12:22:30.774Z,2.3
2023-05-10T12:23:31.335Z,2
2023-05-10T12:24:31.657Z,2.3
2023-05-10T12:25:34.659Z,2.2
2023-05-10T12:26:33.781Z,2
2023-05-10T12:30:00.482Z,2.3
2023-05-10T12:30:42.870Z,2.1
2023-05-10T12:32:46.250Z,2.4
2023-05-10T12:33:47.166Z,2.3
2023-05-10T12:34:47.899Z,2.4
2023-05-10T12:35:52.244Z,2.2
2023-05-10T12:36:52.833Z,2.1
2023-05-10T12:37:51.863Z,2.2
2023-05-10T12:38:50.586Z,2.3
2023-05-10T12:39:50.842Z,10.5
2023-05-10T12:40:51.324Z,3.1
2023-05-10T12:41:52.292Z,2.1
2023-05-10T12:42:52.325Z,3.3
2023-05-10T12:43:52.579Z,4.8
2023-05-10T12:44:57.118Z,2.7
2023-05-10T12:45:54.855Z,2.4
2023-05-10T12:46:55.079Z,2.3
2023-05-10T12:47:55.491Z,2.2
2023-05-10T12:49:06.860Z,2
2023-05-10T12:49:56.160Z,2.3
2023-05-10T12:50:56.609Z,2.2
2023-05-10T12:51:57.027Z,2.2
2023-05-10T12:52:57.401Z,1.9
2023-05-10T12:53:57.700Z,2.5
2023-05-10T12:54:58.098Z,2
2023-05-10T12:55:58.599Z,2.9
2023-05-10T12:56:58.867Z,2.8
2023-05-10T12:58:00.342Z,2.1
2023-05-10T12:58:59.747Z,2.6
2023-05-10T12:59:59.982Z,2.2
2023-05-10T13:01:00.552Z,2.6
2023-05-10T13:02:00.932Z,2.3
2023-05-10T13:03:01.296Z,2.7
2023-05-10T13:04:01.504Z,4.3
2023-05-10T13:05:01.913Z,3.6
2023-05-10T13:06:02.178Z,2.2
2023-05-10T13:07:03.264Z,2.2
2023-05-10T13:08:03.372Z,2.6
2023-05-10T13:09:03.485Z,3.6
2023-05-10T13:10:04.326Z,2.2
2023-05-10T13:11:04.728Z,2.2
2023-05-10T13:12:04.790Z,2.3
2023-05-10T13:13:05.866Z,13.5
2023-05-10T13:14:05.920Z,8.7
2023-05-10T13:15:07.622Z,9.5
2023-05-10T13:16:07.485Z,2.6
2023-05-10T13:17:07.197Z,10.1
2023-05-10T13:18:07.678Z,5.1
2023-05-10T13:19:07.946Z,7.1
2023-05-10T13:20:08.986Z,2.2
2023-05-10T13:21:08.797Z,2.2
2023-05-10T13:22:09.048Z,2.9
2023-05-10T13:23:09.459Z,3.9
2023-05-10T13:24:09.945Z,2.2
2023-05-10T13:25:10.961Z,2.4
2023-05-10T13:26:10.657Z,2.2
2023-05-10T13:27:10.977Z,2.1
2023-05-10T13:28:11.500Z,2.7
2023-05-10T13:29:11.704Z,2
2023-05-10T13:30:12.544Z,2.7
2023-05-10T13:31:12.702Z,3
2023-05-10T13:32:12.968Z,3.2
2023-05-10T13:33:13.469Z,2.6
2023-05-10T13:34:13.685Z,2.1
2023-05-10T13:35:14.092Z,3.3
2023-05-10T13:36:14.619Z,2.2
2023-05-10T13:37:14.822Z,2.5
2023-05-10T13:38:16.103Z,2.3
2023-05-10T13:39:15.626Z,2.3
2023-05-10T13:40:16.291Z,2.5
2023-05-10T13:41:16.318Z,2.4
2023-05-10T13:42:16.809Z,2.6
2023-05-10T13:43:17.330Z,2.2
2023-05-10T13:44:17.640Z,2.4
2023-05-10T13:45:18.429Z,2
2023-05-10T13:46:18.528Z,2.2
2023-05-10T13:47:18.900Z,2.4
2023-05-10T13:48:19.210Z,2.2
2023-05-10T13:49:19.730Z,2.2
2023-05-10T13:50:20.598Z,2.2
2023-05-10T13:51:20.352Z,2.4
2023-05-10T13:52:20.903Z,2.3
2023-05-10T13:53:21.281Z,2.1
2023-05-10T13:54:21.600Z,2.3
2023-05-10T13:55:22.535Z,2.4
2023-05-10T13:56:22.321Z,2.2
2023-05-10T13:57:23.460Z,2
2023-05-10T13:58:23.502Z,2.2
2023-05-10T13:59:23.474Z,2.3
2023-05-10T14:00:24.307Z,2
2023-05-10T14:01:24.560Z,2.3
2023-05-10T14:02:24.789Z,2.1
2023-05-10T14:03:25.287Z,2
2023-05-10T14:04:25.551Z,2.1
2023-05-10T14:05:26.631Z,2.2
2023-05-10T14:06:26.383Z,2.2
2023-05-10T14:07:26.700Z,2.6
2023-05-10T14:08:27.330Z,2.6
2023-05-10T14:09:27.442Z,2.3
2023-05-10T14:10:27.955Z,2.3
2023-05-10T14:11:28.264Z,2.3
2023-05-10T14:12:28.830Z,2
2023-05-10T14:13:29.207Z,1.8
2023-05-10T14:14:29.424Z,1.9
2023-05-10T14:15:29.947Z,2.4
2023-05-10T14:16:30.277Z,2
2023-05-10T14:17:30.572Z,1.9
2023-05-10T14:18:31.119Z,2.1
2023-05-10T14:19:31.340Z,4.4
2023-05-10T14:20:31.910Z,2.7
2023-05-10T14:21:32.161Z,2.2
2023-05-10T14:22:32.676Z,2.1
2023-05-10T14:23:33.092Z,2.3
2023-05-10T14:24:33.314Z,2.3
2023-05-10T14:25:34.195Z,2.1
2023-05-10T14:26:34.304Z,2.1
2023-05-10T14:27:34.515Z,2.2
2023-05-10T14:28:35.008Z,2
2023-05-10T14:29:35.463Z,2.2
2023-05-10T14:30:35.776Z,2.1
2023-05-10T14:31:36.149Z,1.9
2023-05-10T14:32:36.652Z,2
2023-05-10T14:33:36.987Z,2.1
2023-05-10T14:34:37.488Z,2.1
2023-05-10T14:35:37.661Z,2.1
2023-05-10T14:36:38.109Z,2.1
2023-05-10T14:37:38.420Z,2.2
2023-05-10T14:38:40.228Z,2.2
2023-05-10T14:39:39.323Z,2.4
2023-05-10T14:40:39.677Z,2.2
2023-05-10T14:41:40.463Z,2.4
2023-05-10T14:42:40.455Z,2.2
2023-05-10T14:43:40.920Z,2.1
2023-05-10T14:44:41.190Z,2.2
2023-05-10T14:45:41.642Z,2.2
2023-05-10T14:46:42.221Z,2.2
2023-05-10T14:47:42.479Z,2.3
2023-05-10T14:48:42.963Z,2
2023-05-10T14:49:43.168Z,1.8
2023-05-10T14:50:43.572Z,2.1
2023-05-10T14:51:43.991Z,2.2
2023-05-10T14:52:44.346Z,2.1
2023-05-10T14:53:44.817Z,2.2
2023-05-10T14:54:45.253Z,1.8
2023-05-10T14:55:45.767Z,3.8
2023-05-10T14:56:46.073Z,2
2023-05-10T14:57:46.294Z,2.2
2023-05-10T14:58:47.027Z,2
2023-05-10T14:59:47.114Z,2
2023-05-10T15:00:47.534Z,1.9
2023-05-10T15:01:47.859Z,1.8
2023-05-10T15:02:48.314Z,2.3
2023-05-10T15:03:48.852Z,2
2023-05-10T15:04:49.198Z,1.9
2023-05-10T15:05:49.404Z,2
2023-05-10T15:06:49.760Z,1.9